sensor_id;sensor_type;location;lat;lon;timestamp;P1;durP1;ratioP1;P2;durP2;ratioP2
12433;SDS011;6281;49.038;8.372;2023-04-24T00:02:06;0.80;;;0.50;;
12433;SDS011;6281;49.038;8.372;2023-04-24T00:04:35;0.73;;;0.60;;
12433;SDS011;6281;49.038;8.372;2023-04-24T00:07:05;0.73;;;0.60;;
12433;SDS011;6281;49.038;8.372;2023-04-24T00:09:33;0.40;;;0.40;;
12433;SDS011;6281;49.038;8.372;2023-04-24T00:12:00;0.67;;;0.47;;
12433;SDS011;6281;49.038;8.372;2023-04-24T00:14:28;1.03;;;0.40;;
12433;SDS011;6281;49.038;8.372;2023-04-24T00:16:55;0.73;;;0.50;;
12433;SDS011;6281;49.038;8.372;2023-04-24T00:19:22;1.10;;;0.57;;
12433;SDS011;6281;49.038;8.372;2023-04-24T00:21:49;0.63;;;0.30;;
12433;SDS011;6281;49.038;8.372;2023-04-24T00:24:17;0.53;;;0.30;;
12433;SDS011;6281;49.038;8.372;2023-04-24T00:26:45;0.50;;;0.40;;
12433;SDS011;6281;49.038;8.372;2023-04-24T00:29:13;0.97;;;0.60;;
12433;SDS011;6281;49.038;8.372;2023-04-24T00:31:39;0.30;;;0.20;;
12433;SDS011;6281;49.038;8.372;2023-04-24T00:34:06;0.73;;;0.53;;
12433;SDS011;6281;49.038;8.372;2023-04-24T00:36:33;0.33;;;0.30;;
12433;SDS011;6281;49.038;8.372;2023-04-24T00:39:00;1.03;;;0.50;;
12433;SDS011;6281;49.038;8.372;2023-04-24T00:41:27;0.97;;;0.50;;
12433;SDS011;6281;49.038;8.372;2023-04-24T00:43:56;0.83;;;0.60;;
12433;SDS011;6281;49.038;8.372;2023-04-24T00:46:22;0.50;;;0.50;;
12433;SDS011;6281;49.038;8.372;2023-04-24T00:49:08;1.40;;;0.33;;
12433;SDS011;6281;49.038;8.372;2023-04-24T00:51:35;0.60;;;0.40;;
12433;SDS011;6281;49.038;8.372;2023-04-24T00:54:02;0.57;;;0.43;;
12433;SDS011;6281;49.038;8.372;2023-04-24T00:56:29;0.97;;;0.60;;
12433;SDS011;6281;49.038;8.372;2023-04-24T00:58:58;0.77;;;0.40;;
12433;SDS011;6281;49.038;8.372;2023-04-24T01:01:25;0.40;;;0.40;;
12433;SDS011;6281;49.038;8.372;2023-04-24T01:03:52;0.40;;;0.40;;
12433;SDS011;6281;49.038;8.372;2023-04-24T01:06:19;1.57;;;0.40;;
12433;SDS011;6281;49.038;8.372;2023-04-24T01:08:47;0.97;;;0.47;;
12433;SDS011;6281;49.038;8.372;2023-04-24T01:11:14;0.57;;;0.40;;
12433;SDS011;6281;49.038;8.372;2023-04-24T01:13:41;0.83;;;0.60;;
12433;SDS011;6281;49.038;8.372;2023-04-24T01:16:09;0.53;;;0.53;;
12433;SDS011;6281;49.038;8.372;2023-04-24T01:18:36;1.03;;;0.50;;
12433;SDS011;6281;49.038;8.372;2023-04-24T01:21:04;0.77;;;0.57;;
12433;SDS011;6281;49.038;8.372;2023-04-24T01:23:33;0.63;;;0.40;;
12433;SDS011;6281;49.038;8.372;2023-04-24T01:26:00;1.90;;;0.40;;
12433;SDS011;6281;49.038;8.372;2023-04-24T01:28:27;0.77;;;0.50;;
12433;SDS011;6281;49.038;8.372;2023-04-24T01:30:54;0.60;;;0.50;;
12433;SDS011;6281;49.038;8.372;2023-04-24T01:33:21;0.63;;;0.40;;
12433;SDS011;6281;49.038;8.372;2023-04-24T01:35:48;2.77;;;0.63;;
12433;SDS011;6281;49.038;8.372;2023-04-24T01:38:15;0.93;;;0.50;;
12433;SDS011;6281;49.038;8.372;2023-04-24T01:40:43;1.80;;;0.70;;
12433;SDS011;6281;49.038;8.372;2023-04-24T01:43:11;1.27;;;0.53;;
12433;SDS011;6281;49.038;8.372;2023-04-24T01:45:38;1.00;;;0.60;;
12433;SDS011;6281;49.038;8.372;2023-04-24T01:48:05;0.70;;;0.50;;
12433;SDS011;6281;49.038;8.372;2023-04-24T01:50:31;0.97;;;0.40;;
12433;SDS011;6281;49.038;8.372;2023-04-24T01:52:58;1.40;;;0.40;;
12433;SDS011;6281;49.038;8.372;2023-04-24T01:55:25;0.90;;;0.60;;
12433;SDS011;6281;49.038;8.372;2023-04-24T01:57:54;0.50;;;0.40;;
12433;SDS011;6281;49.038;8.372;2023-04-24T02:00:22;1.87;;;0.50;;
12433;SDS011;6281;49.038;8.372;2023-04-24T02:02:49;0.70;;;0.50;;
12433;SDS011;6281;49.038;8.372;2023-04-24T02:05:16;0.57;;;0.53;;
12433;SDS011;6281;49.038;8.372;2023-04-24T02:07:43;1.80;;;0.60;;
12433;SDS011;6281;49.038;8.372;2023-04-24T02:10:10;0.80;;;0.53;;
12433;SDS011;6281;49.038;8.372;2023-04-24T02:12:37;0.47;;;0.47;;
12433;SDS011;6281;49.038;8.372;2023-04-24T02:15:06;1.60;;;0.70;;
12433;SDS011;6281;49.038;8.372;2023-04-24T02:17:33;1.73;;;0.80;;
12433;SDS011;6281;49.038;8.372;2023-04-24T02:20:00;0.80;;;0.60;;
12433;SDS011;6281;49.038;8.372;2023-04-24T02:22:27;1.07;;;0.43;;
12433;SDS011;6281;49.038;8.372;2023-04-24T02:24:54;1.00;;;0.67;;
12433;SDS011;6281;49.038;8.372;2023-04-24T02:27:21;0.87;;;0.43;;
12433;SDS011;6281;49.038;8.372;2023-04-24T02:29:48;0.70;;;0.57;;
12433;SDS011;6281;49.038;8.372;2023-04-24T02:32:16;0.50;;;0.50;;
12433;SDS011;6281;49.038;8.372;2023-04-24T02:34:43;0.30;;;0.30;;
12433;SDS011;6281;49.038;8.372;2023-04-24T02:37:10;1.80;;;0.50;;
12433;SDS011;6281;49.038;8.372;2023-04-24T02:39:37;2.83;;;0.43;;
12433;SDS011;6281;49.038;8.372;2023-04-24T02:42:04;0.40;;;0.40;;
12433;SDS011;6281;49.038;8.372;2023-04-24T02:44:33;0.90;;;0.50;;
12433;SDS011;6281;49.038;8.372;2023-04-24T02:47:00;1.17;;;0.50;;
12433;SDS011;6281;49.038;8.372;2023-04-24T02:49:28;0.70;;;0.50;;
12433;SDS011;6281;49.038;8.372;2023-04-24T02:51:55;0.60;;;0.50;;
12433;SDS011;6281;49.038;8.372;2023-04-24T02:54:22;0.90;;;0.47;;
12433;SDS011;6281;49.038;8.372;2023-04-24T02:56:49;1.17;;;0.50;;
12433;SDS011;6281;49.038;8.372;2023-04-24T02:59:16;1.43;;;0.50;;
12433;SDS011;6281;49.038;8.372;2023-04-24T03:01:43;0.30;;;0.30;;
12433;SDS011;6281;49.038;8.372;2023-04-24T03:04:10;1.37;;;0.30;;
12433;SDS011;6281;49.038;8.372;2023-04-24T03:06:38;1.07;;;0.70;;
12433;SDS011;6281;49.038;8.372;2023-04-24T03:09:05;0.60;;;0.60;;
12433;SDS011;6281;49.038;8.372;2023-04-24T03:11:32;0.60;;;0.50;;
12433;SDS011;6281;49.038;8.372;2023-04-24T03:13:59;0.50;;;0.40;;
12433;SDS011;6281;49.038;8.372;2023-04-24T03:16:26;0.50;;;0.50;;
12433;SDS011;6281;49.038;8.372;2023-04-24T03:18:53;1.73;;;1.00;;
12433;SDS011;6281;49.038;8.372;2023-04-24T03:21:20;1.07;;;0.77;;
12433;SDS011;6281;49.038;8.372;2023-04-24T03:23:48;0.93;;;0.70;;
12433;SDS011;6281;49.038;8.372;2023-04-24T03:26:15;1.53;;;0.73;;
12433;SDS011;6281;49.038;8.372;2023-04-24T03:28:42;1.37;;;0.90;;
12433;SDS011;6281;49.038;8.372;2023-04-24T03:31:09;1.20;;;0.70;;
12433;SDS011;6281;49.038;8.372;2023-04-24T03:33:36;1.43;;;1.00;;
12433;SDS011;6281;49.038;8.372;2023-04-24T03:36:03;1.30;;;1.00;;
12433;SDS011;6281;49.038;8.372;2023-04-24T03:38:31;0.90;;;0.73;;
12433;SDS011;6281;49.038;8.372;2023-04-24T03:40:59;1.17;;;0.90;;
12433;SDS011;6281;49.038;8.372;2023-04-24T03:43:26;2.57;;;1.00;;
12433;SDS011;6281;49.038;8.372;2023-04-24T03:45:54;0.80;;;0.80;;
12433;SDS011;6281;49.038;8.372;2023-04-24T03:48:20;0.93;;;0.60;;
12433;SDS011;6281;49.038;8.372;2023-04-24T03:50:47;0.70;;;0.70;;
12433;SDS011;6281;49.038;8.372;2023-04-24T03:53:14;1.20;;;0.80;;
12433;SDS011;6281;49.038;8.372;2023-04-24T03:55:41;0.80;;;0.80;;
12433;SDS011;6281;49.038;8.372;2023-04-24T03:58:10;0.80;;;0.53;;
12433;SDS011;6281;49.038;8.372;2023-04-24T04:00:36;0.70;;;0.67;;
12433;SDS011;6281;49.038;8.372;2023-04-24T04:03:05;1.07;;;0.87;;
12433;SDS011;6281;49.038;8.372;2023-04-24T04:05:32;0.83;;;0.70;;
12433;SDS011;6281;49.038;8.372;2023-04-24T04:07:59;0.90;;;0.83;;
12433;SDS011;6281;49.038;8.372;2023-04-24T04:10:26;1.33;;;1.00;;
12433;SDS011;6281;49.038;8.372;2023-04-24T04:12:52;1.03;;;0.80;;
12433;SDS011;6281;49.038;8.372;2023-04-24T04:15:21;1.20;;;0.80;;
12433;SDS011;6281;49.038;8.372;2023-04-24T04:17:48;1.23;;;1.00;;
12433;SDS011;6281;49.038;8.372;2023-04-24T04:20:15;1.33;;;1.20;;
12433;SDS011;6281;49.038;8.372;2023-04-24T04:22:42;1.17;;;1.07;;
12433;SDS011;6281;49.038;8.372;2023-04-24T04:25:09;1.20;;;0.80;;
12433;SDS011;6281;49.038;8.372;2023-04-24T04:27:36;1.50;;;1.13;;
12433;SDS011;6281;49.038;8.372;2023-04-24T04:30:04;1.10;;;1.00;;
12433;SDS011;6281;49.038;8.372;2023-04-24T04:32:33;0.73;;;0.67;;
12433;SDS011;6281;49.038;8.372;2023-04-24T04:35:00;1.53;;;1.13;;
12433;SDS011;6281;49.038;8.372;2023-04-24T04:37:28;1.10;;;0.90;;
12433;SDS011;6281;49.038;8.372;2023-04-24T04:39:55;1.33;;;1.00;;
12433;SDS011;6281;49.038;8.372;2023-04-24T04:42:23;2.67;;;1.10;;
12433;SDS011;6281;49.038;8.372;2023-04-24T04:44:49;1.07;;;0.90;;
12433;SDS011;6281;49.038;8.372;2023-04-24T04:47:16;1.40;;;1.30;;
12433;SDS011;6281;49.038;8.372;2023-04-24T04:49:45;2.27;;;1.33;;
12433;SDS011;6281;49.038;8.372;2023-04-24T04:52:13;1.57;;;1.23;;
12433;SDS011;6281;49.038;8.372;2023-04-24T04:54:41;1.40;;;1.20;;
12433;SDS011;6281;49.038;8.372;2023-04-24T04:57:08;1.57;;;0.90;;
12433;SDS011;6281;49.038;8.372;2023-04-24T04:59:35;1.53;;;1.10;;
12433;SDS011;6281;49.038;8.372;2023-04-24T05:02:02;1.63;;;1.53;;
12433;SDS011;6281;49.038;8.372;2023-04-24T05:04:29;1.80;;;1.20;;
12433;SDS011;6281;49.038;8.372;2023-04-24T05:06:58;1.50;;;1.40;;
12433;SDS011;6281;49.038;8.372;2023-04-24T05:09:25;1.77;;;1.50;;
12433;SDS011;6281;49.038;8.372;2023-04-24T05:11:52;1.80;;;1.33;;
12433;SDS011;6281;49.038;8.372;2023-04-24T05:14:19;1.93;;;1.40;;
12433;SDS011;6281;49.038;8.372;2023-04-24T05:16:46;2.53;;;1.60;;
12433;SDS011;6281;49.038;8.372;2023-04-24T05:19:13;2.20;;;1.60;;
12433;SDS011;6281;49.038;8.372;2023-04-24T05:21:40;3.27;;;1.30;;
12433;SDS011;6281;49.038;8.372;2023-04-24T05:24:09;2.17;;;1.40;;
12433;SDS011;6281;49.038;8.372;2023-04-24T05:26:36;2.13;;;1.50;;
12433;SDS011;6281;49.038;8.372;2023-04-24T05:29:02;1.70;;;1.37;;
12433;SDS011;6281;49.038;8.372;2023-04-24T05:31:30;1.87;;;1.50;;
12433;SDS011;6281;49.038;8.372;2023-04-24T05:33:57;1.50;;;1.17;;
12433;SDS011;6281;49.038;8.372;2023-04-24T05:36:24;1.67;;;1.40;;
12433;SDS011;6281;49.038;8.372;2023-04-24T05:38:52;1.33;;;1.20;;
12433;SDS011;6281;49.038;8.372;2023-04-24T05:41:20;1.27;;;1.17;;
12433;SDS011;6281;49.038;8.372;2023-04-24T05:43:47;2.43;;;0.90;;
12433;SDS011;6281;49.038;8.372;2023-04-24T05:46:14;1.47;;;0.80;;
12433;SDS011;6281;49.038;8.372;2023-04-24T05:48:41;2.00;;;1.37;;
12433;SDS011;6281;49.038;8.372;2023-04-24T05:51:08;1.10;;;0.87;;
12433;SDS011;6281;49.038;8.372;2023-04-24T05:53:35;1.67;;;0.93;;
12433;SDS011;6281;49.038;8.372;2023-04-24T05:56:02;1.10;;;0.70;;
12433;SDS011;6281;49.038;8.372;2023-04-24T05:58:31;0.90;;;0.70;;
12433;SDS011;6281;49.038;8.372;2023-04-24T06:00:58;2.40;;;1.00;;
12433;SDS011;6281;49.038;8.372;2023-04-24T06:03:26;2.87;;;1.10;;
12433;SDS011;6281;49.038;8.372;2023-04-24T06:05:56;1.53;;;0.60;;
12433;SDS011;6281;49.038;8.372;2023-04-24T06:08:23;0.87;;;0.87;;
12433;SDS011;6281;49.038;8.372;2023-04-24T06:10:50;1.50;;;1.00;;
12433;SDS011;6281;49.038;8.372;2023-04-24T06:13:17;1.40;;;1.03;;
12433;SDS011;6281;49.038;8.372;2023-04-24T06:15:46;0.80;;;0.80;;
12433;SDS011;6281;49.038;8.372;2023-04-24T06:18:14;1.00;;;0.90;;
12433;SDS011;6281;49.038;8.372;2023-04-24T06:20:41;1.00;;;0.73;;
12433;SDS011;6281;49.038;8.372;2023-04-24T06:23:08;2.80;;;1.27;;
12433;SDS011;6281;49.038;8.372;2023-04-24T06:25:35;1.13;;;1.03;;
12433;SDS011;6281;49.038;8.372;2023-04-24T06:28:02;1.07;;;0.87;;
12433;SDS011;6281;49.038;8.372;2023-04-24T06:30:29;1.20;;;0.90;;
12433;SDS011;6281;49.038;8.372;2023-04-24T06:32:58;0.83;;;0.63;;
12433;SDS011;6281;49.038;8.372;2023-04-24T06:35:25;1.20;;;0.90;;
12433;SDS011;6281;49.038;8.372;2023-04-24T06:37:52;1.33;;;1.00;;
12433;SDS011;6281;49.038;8.372;2023-04-24T06:40:21;0.70;;;0.70;;
12433;SDS011;6281;49.038;8.372;2023-04-24T06:42:48;1.20;;;1.00;;
12433;SDS011;6281;49.038;8.372;2023-04-24T06:45:14;1.23;;;1.07;;
12433;SDS011;6281;49.038;8.372;2023-04-24T06:47:41;1.17;;;0.97;;
12433;SDS011;6281;49.038;8.372;2023-04-24T06:50:10;1.40;;;1.00;;
12433;SDS011;6281;49.038;8.372;2023-04-24T06:52:37;1.50;;;1.00;;
12433;SDS011;6281;49.038;8.372;2023-04-24T06:55:04;2.10;;;1.50;;
12433;SDS011;6281;49.038;8.372;2023-04-24T06:57:32;1.20;;;1.00;;
12433;SDS011;6281;49.038;8.372;2023-04-24T06:59:59;1.70;;;1.03;;
12433;SDS011;6281;49.038;8.372;2023-04-24T07:02:26;2.07;;;1.50;;
12433;SDS011;6281;49.038;8.372;2023-04-24T07:04:53;2.40;;;1.50;;
12433;SDS011;6281;49.038;8.372;2023-04-24T07:07:21;1.50;;;1.10;;
12433;SDS011;6281;49.038;8.372;2023-04-24T07:09:48;1.63;;;1.43;;
12433;SDS011;6281;49.038;8.372;2023-04-24T07:12:15;1.70;;;1.43;;
12433;SDS011;6281;49.038;8.372;2023-04-24T07:14:45;1.17;;;1.03;;
12433;SDS011;6281;49.038;8.372;2023-04-24T07:17:12;2.37;;;1.17;;
12433;SDS011;6281;49.038;8.372;2023-04-24T07:19:39;1.43;;;1.20;;
12433;SDS011;6281;49.038;8.372;2023-04-24T07:22:06;2.63;;;1.80;;
12433;SDS011;6281;49.038;8.372;2023-04-24T07:24:35;1.73;;;1.43;;
12433;SDS011;6281;49.038;8.372;2023-04-24T07:27:02;1.00;;;0.80;;
12433;SDS011;6281;49.038;8.372;2023-04-24T07:29:30;1.13;;;1.03;;
12433;SDS011;6281;49.038;8.372;2023-04-24T07:31:57;0.60;;;0.60;;
12433;SDS011;6281;49.038;8.372;2023-04-24T07:34:24;1.57;;;0.90;;
12433;SDS011;6281;49.038;8.372;2023-04-24T07:36:51;2.47;;;1.57;;
12433;SDS011;6281;49.038;8.372;2023-04-24T07:39:18;4.13;;;1.93;;
12433;SDS011;6281;49.038;8.372;2023-04-24T07:41:47;2.07;;;1.53;;
12433;SDS011;6281;49.038;8.372;2023-04-24T07:44:14;1.10;;;0.50;;
12433;SDS011;6281;49.038;8.372;2023-04-24T07:46:40;1.63;;;1.13;;
12433;SDS011;6281;49.038;8.372;2023-04-24T07:49:07;1.30;;;1.20;;
12433;SDS011;6281;49.038;8.372;2023-04-24T07:51:34;5.90;;;1.43;;
12433;SDS011;6281;49.038;8.372;2023-04-24T07:54:03;1.47;;;1.30;;
12433;SDS011;6281;49.038;8.372;2023-04-24T07:56:31;1.23;;;1.13;;
12433;SDS011;6281;49.038;8.372;2023-04-24T07:58:59;2.10;;;0.57;;
12433;SDS011;6281;49.038;8.372;2023-04-24T08:01:27;0.73;;;0.50;;
12433;SDS011;6281;49.038;8.372;2023-04-24T08:03:54;0.60;;;0.60;;
12433;SDS011;6281;49.038;8.372;2023-04-24T08:06:21;1.07;;;0.87;;
12433;SDS011;6281;49.038;8.372;2023-04-24T08:08:48;0.93;;;0.50;;
12433;SDS011;6281;49.038;8.372;2023-04-24T08:11:16;1.70;;;0.90;;
12433;SDS011;6281;49.038;8.372;2023-04-24T08:13:43;0.90;;;0.73;;
12433;SDS011;6281;49.038;8.372;2023-04-24T08:16:12;0.73;;;0.73;;
12433;SDS011;6281;49.038;8.372;2023-04-24T08:18:39;0.70;;;0.60;;
12433;SDS011;6281;49.038;8.372;2023-04-24T08:21:06;1.20;;;0.80;;
12433;SDS011;6281;49.038;8.372;2023-04-24T08:23:33;2.30;;;0.80;;
12433;SDS011;6281;49.038;8.372;2023-04-24T08:26:00;1.87;;;0.60;;
12433;SDS011;6281;49.038;8.372;2023-04-24T08:28:28;1.07;;;0.87;;
12433;SDS011;6281;49.038;8.372;2023-04-24T08:30:55;1.23;;;1.10;;
12433;SDS011;6281;49.038;8.372;2023-04-24T08:33:23;0.90;;;0.90;;
12433;SDS011;6281;49.038;8.372;2023-04-24T08:35:50;1.00;;;0.93;;
12433;SDS011;6281;49.038;8.372;2023-04-24T08:38:18;0.43;;;0.43;;
12433;SDS011;6281;49.038;8.372;2023-04-24T08:40:47;1.27;;;0.90;;
12433;SDS011;6281;49.038;8.372;2023-04-24T08:43:14;0.73;;;0.70;;
12433;SDS011;6281;49.038;8.372;2023-04-24T08:45:42;0.90;;;0.87;;
12433;SDS011;6281;49.038;8.372;2023-04-24T08:48:09;1.60;;;0.90;;
12433;SDS011;6281;49.038;8.372;2023-04-24T08:50:38;1.80;;;0.83;;
12433;SDS011;6281;49.038;8.372;2023-04-24T08:53:07;1.23;;;0.87;;
12433;SDS011;6281;49.038;8.372;2023-04-24T08:55:35;2.23;;;0.80;;
12433;SDS011;6281;49.038;8.372;2023-04-24T08:58:03;0.77;;;0.77;;
12433;SDS011;6281;49.038;8.372;2023-04-24T09:00:30;1.23;;;0.80;;
12433;SDS011;6281;49.038;8.372;2023-04-24T09:03:00;0.93;;;0.80;;
12433;SDS011;6281;49.038;8.372;2023-04-24T09:05:27;1.20;;;1.03;;
12433;SDS011;6281;49.038;8.372;2023-04-24T09:07:56;2.07;;;0.83;;
12433;SDS011;6281;49.038;8.372;2023-04-24T09:10:24;2.20;;;1.47;;
12433;SDS011;6281;49.038;8.372;2023-04-24T09:12:52;1.13;;;1.03;;
12433;SDS011;6281;49.038;8.372;2023-04-24T09:15:20;1.00;;;0.90;;
12433;SDS011;6281;49.038;8.372;2023-04-24T09:17:47;0.80;;;0.67;;
12433;SDS011;6281;49.038;8.372;2023-04-24T09:20:14;1.07;;;0.93;;
12433;SDS011;6281;49.038;8.372;2023-04-24T09:22:41;0.73;;;0.73;;
12433;SDS011;6281;49.038;8.372;2023-04-24T09:25:10;1.53;;;1.33;;
12433;SDS011;6281;49.038;8.372;2023-04-24T09:27:41;2.50;;;1.20;;
12433;SDS011;6281;49.038;8.372;2023-04-24T09:30:11;1.50;;;1.27;;
12433;SDS011;6281;49.038;8.372;2023-04-24T09:32:39;1.37;;;1.27;;
12433;SDS011;6281;49.038;8.372;2023-04-24T09:35:07;3.97;;;1.70;;
12433;SDS011;6281;49.038;8.372;2023-04-24T09:37:35;2.20;;;1.47;;
12433;SDS011;6281;49.038;8.372;2023-04-24T09:40:15;1.50;;;1.00;;
12433;SDS011;6281;49.038;8.372;2023-04-24T09:42:43;1.87;;;1.50;;
12433;SDS011;6281;49.038;8.372;2023-04-24T09:45:11;1.93;;;1.70;;
12433;SDS011;6281;49.038;8.372;2023-04-24T09:47:38;2.47;;;1.40;;
12433;SDS011;6281;49.038;8.372;2023-04-24T09:50:09;2.60;;;1.43;;
12433;SDS011;6281;49.038;8.372;2023-04-24T09:52:42;1.50;;;1.33;;
12433;SDS011;6281;49.038;8.372;2023-04-24T09:55:10;2.07;;;1.87;;
12433;SDS011;6281;49.038;8.372;2023-04-24T09:57:47;2.00;;;1.37;;
12433;SDS011;6281;49.038;8.372;2023-04-24T10:00:17;3.50;;;1.40;;
12433;SDS011;6281;49.038;8.372;2023-04-24T10:02:51;1.63;;;1.50;;
12433;SDS011;6281;49.038;8.372;2023-04-24T10:05:24;3.17;;;1.17;;
12433;SDS011;6281;49.038;8.372;2023-04-24T10:07:57;1.70;;;1.30;;
12433;SDS011;6281;49.038;8.372;2023-04-24T10:10:27;1.00;;;0.90;;
12433;SDS011;6281;49.038;8.372;2023-04-24T10:12:56;2.47;;;1.07;;
12433;SDS011;6281;49.038;8.372;2023-04-24T10:15:23;1.07;;;0.97;;
12433;SDS011;6281;49.038;8.372;2023-04-24T10:17:53;1.00;;;0.83;;
12433;SDS011;6281;49.038;8.372;2023-04-24T10:20:21;1.20;;;1.10;;
12433;SDS011;6281;49.038;8.372;2023-04-24T10:22:49;3.60;;;0.90;;
12433;SDS011;6281;49.038;8.372;2023-04-24T10:25:18;0.90;;;0.90;;
12433;SDS011;6281;49.038;8.372;2023-04-24T10:27:47;1.43;;;0.90;;
12433;SDS011;6281;49.038;8.372;2023-04-24T10:30:16;3.97;;;1.20;;
12433;SDS011;6281;49.038;8.372;2023-04-24T10:32:44;2.77;;;0.90;;
12433;SDS011;6281;49.038;8.372;2023-04-24T10:35:12;2.80;;;1.57;;
12433;SDS011;6281;49.038;8.372;2023-04-24T10:37:42;1.27;;;1.13;;
12433;SDS011;6281;49.038;8.372;2023-04-24T10:40:12;1.60;;;1.37;;
12433;SDS011;6281;49.038;8.372;2023-04-24T10:42:46;1.00;;;1.00;;
12433;SDS011;6281;49.038;8.372;2023-04-24T10:45:22;2.03;;;0.80;;
12433;SDS011;6281;49.038;8.372;2023-04-24T10:47:51;1.37;;;1.27;;
12433;SDS011;6281;49.038;8.372;2023-04-24T10:50:18;2.00;;;1.33;;
12433;SDS011;6281;49.038;8.372;2023-04-24T10:52:45;1.90;;;1.50;;
12433;SDS011;6281;49.038;8.372;2023-04-24T10:55:13;2.13;;;1.70;;
12433;SDS011;6281;49.038;8.372;2023-04-24T10:57:50;2.83;;;1.63;;
12433;SDS011;6281;49.038;8.372;2023-04-24T11:00:30;1.90;;;1.50;;
12433;SDS011;6281;49.038;8.372;2023-04-24T11:02:57;1.90;;;1.73;;
12433;SDS011;6281;49.038;8.372;2023-04-24T11:08:15;2.70;;;1.90;;
12433;SDS011;6281;49.038;8.372;2023-04-24T11:10:54;2.47;;;1.30;;
12433;SDS011;6281;49.038;8.372;2023-04-24T11:13:27;2.63;;;1.37;;
12433;SDS011;6281;49.038;8.372;2023-04-24T11:16:23;2.00;;;1.77;;
12433;SDS011;6281;49.038;8.372;2023-04-24T11:18:59;2.97;;;2.17;;
12433;SDS011;6281;49.038;8.372;2023-04-24T11:21:30;1.43;;;1.27;;
12433;SDS011;6281;49.038;8.372;2023-04-24T11:23:58;2.47;;;1.70;;
12433;SDS011;6281;49.038;8.372;2023-04-24T11:26:25;1.40;;;1.30;;
12433;SDS011;6281;49.038;8.372;2023-04-24T11:29:06;1.60;;;1.40;;
12433;SDS011;6281;49.038;8.372;2023-04-24T11:31:35;2.20;;;1.97;;
12433;SDS011;6281;49.038;8.372;2023-04-24T11:34:10;1.97;;;1.33;;
12433;SDS011;6281;49.038;8.372;2023-04-24T11:36:38;1.70;;;1.17;;
12433;SDS011;6281;49.038;8.372;2023-04-24T11:39:06;2.07;;;1.50;;
12433;SDS011;6281;49.038;8.372;2023-04-24T11:41:33;1.47;;;1.30;;
12433;SDS011;6281;49.038;8.372;2023-04-24T11:44:00;3.30;;;1.70;;
12433;SDS011;6281;49.038;8.372;2023-04-24T11:46:28;1.43;;;1.33;;
12433;SDS011;6281;49.038;8.372;2023-04-24T11:48:58;2.37;;;1.87;;
12433;SDS011;6281;49.038;8.372;2023-04-24T11:51:26;3.77;;;1.53;;
12433;SDS011;6281;49.038;8.372;2023-04-24T11:53:54;1.30;;;1.20;;
12433;SDS011;6281;49.038;8.372;2023-04-24T11:56:22;4.50;;;1.93;;
12433;SDS011;6281;49.038;8.372;2023-04-24T11:58:51;1.60;;;1.50;;
12433;SDS011;6281;49.038;8.372;2023-04-24T12:01:22;2.70;;;1.90;;
12433;SDS011;6281;49.038;8.372;2023-04-24T12:03:50;2.20;;;1.83;;
12433;SDS011;6281;49.038;8.372;2023-04-24T12:06:21;1.77;;;1.63;;
12433;SDS011;6281;49.038;8.372;2023-04-24T12:08:49;2.03;;;1.83;;
12433;SDS011;6281;49.038;8.372;2023-04-24T12:11:22;1.53;;;1.43;;
12433;SDS011;6281;49.038;8.372;2023-04-24T12:13:50;2.00;;;1.60;;
12433;SDS011;6281;49.038;8.372;2023-04-24T12:16:18;2.30;;;2.10;;
12433;SDS011;6281;49.038;8.372;2023-04-24T12:18:45;2.70;;;1.70;;
12433;SDS011;6281;49.038;8.372;2023-04-24T12:21:16;2.50;;;1.90;;
12433;SDS011;6281;49.038;8.372;2023-04-24T12:23:45;2.37;;;1.80;;
12433;SDS011;6281;49.038;8.372;2023-04-24T12:26:12;1.97;;;1.50;;
12433;SDS011;6281;49.038;8.372;2023-04-24T12:28:42;2.23;;;1.97;;
12433;SDS011;6281;49.038;8.372;2023-04-24T12:31:12;1.97;;;1.50;;
12433;SDS011;6281;49.038;8.372;2023-04-24T12:33:39;1.97;;;1.77;;
12433;SDS011;6281;49.038;8.372;2023-04-24T12:36:06;2.33;;;1.73;;
12433;SDS011;6281;49.038;8.372;2023-04-24T12:38:37;1.73;;;1.57;;
12433;SDS011;6281;49.038;8.372;2023-04-24T12:41:08;3.53;;;2.30;;
12433;SDS011;6281;49.038;8.372;2023-04-24T12:43:36;2.10;;;1.57;;
12433;SDS011;6281;49.038;8.372;2023-04-24T12:46:03;4.20;;;2.10;;
12433;SDS011;6281;49.038;8.372;2023-04-24T12:48:31;1.93;;;1.40;;
12433;SDS011;6281;49.038;8.372;2023-04-24T12:51:13;2.17;;;1.97;;
12433;SDS011;6281;49.038;8.372;2023-04-24T12:53:40;2.07;;;1.87;;
12433;SDS011;6281;49.038;8.372;2023-04-24T12:56:08;3.70;;;2.00;;
12433;SDS011;6281;49.038;8.372;2023-04-24T12:58:37;1.60;;;1.33;;
12433;SDS011;6281;49.038;8.372;2023-04-24T13:01:04;1.33;;;1.23;;
12433;SDS011;6281;49.038;8.372;2023-04-24T13:03:31;2.80;;;1.80;;
12433;SDS011;6281;49.038;8.372;2023-04-24T13:05:58;3.03;;;1.70;;
12433;SDS011;6281;49.038;8.372;2023-04-24T13:08:25;1.17;;;0.97;;
12433;SDS011;6281;49.038;8.372;2023-04-24T13:10:52;2.13;;;1.50;;
12433;SDS011;6281;49.038;8.372;2023-04-24T13:13:23;2.63;;;1.53;;
12433;SDS011;6281;49.038;8.372;2023-04-24T13:15:50;2.97;;;1.27;;
12433;SDS011;6281;49.038;8.372;2023-04-24T13:18:17;2.30;;;1.53;;
12433;SDS011;6281;49.038;8.372;2023-04-24T13:20:44;1.20;;;1.10;;
12433;SDS011;6281;49.038;8.372;2023-04-24T13:23:12;1.97;;;1.50;;
12433;SDS011;6281;49.038;8.372;2023-04-24T13:25:39;2.33;;;1.90;;
12433;SDS011;6281;49.038;8.372;2023-04-24T13:28:07;2.50;;;1.63;;
12433;SDS011;6281;49.038;8.372;2023-04-24T13:30:35;2.40;;;1.67;;
12433;SDS011;6281;49.038;8.372;2023-04-24T13:33:02;2.57;;;1.93;;
12433;SDS011;6281;49.038;8.372;2023-04-24T13:35:29;2.50;;;1.80;;
12433;SDS011;6281;49.038;8.372;2023-04-24T13:37:57;2.87;;;2.03;;
12433;SDS011;6281;49.038;8.372;2023-04-24T13:40:25;2.47;;;1.70;;
12433;SDS011;6281;49.038;8.372;2023-04-24T13:42:52;2.10;;;1.90;;
12433;SDS011;6281;49.038;8.372;2023-04-24T13:45:19;2.60;;;1.83;;
12433;SDS011;6281;49.038;8.372;2023-04-24T13:47:47;1.40;;;1.27;;
12433;SDS011;6281;49.038;8.372;2023-04-24T13:50:14;2.00;;;1.80;;
12433;SDS011;6281;49.038;8.372;2023-04-24T13:52:47;2.70;;;1.53;;
12433;SDS011;6281;49.038;8.372;2023-04-24T13:55:17;2.23;;;1.43;;
12433;SDS011;6281;49.038;8.372;2023-04-24T13:58:03;1.70;;;1.60;;
12433;SDS011;6281;49.038;8.372;2023-04-24T14:01:12;6.20;;;1.43;;
12433;SDS011;6281;49.038;8.372;2023-04-24T14:04:17;1.83;;;1.63;;
12433;SDS011;6281;49.038;8.372;2023-04-24T14:07:02;2.30;;;1.83;;
12433;SDS011;6281;49.038;8.372;2023-04-24T14:09:30;2.10;;;1.60;;
12433;SDS011;6281;49.038;8.372;2023-04-24T14:11:57;2.50;;;1.37;;
12433;SDS011;6281;49.038;8.372;2023-04-24T14:14:27;1.60;;;1.50;;
12433;SDS011;6281;49.038;8.372;2023-04-24T14:17:06;2.33;;;1.73;;
12433;SDS011;6281;49.038;8.372;2023-04-24T14:19:42;1.63;;;1.53;;
12433;SDS011;6281;49.038;8.372;2023-04-24T14:22:09;3.63;;;1.60;;
12433;SDS011;6281;49.038;8.372;2023-04-24T14:24:36;2.23;;;1.90;;
12433;SDS011;6281;49.038;8.372;2023-04-24T14:27:12;1.53;;;1.43;;
12433;SDS011;6281;49.038;8.372;2023-04-24T14:29:45;2.27;;;1.73;;
12433;SDS011;6281;49.038;8.372;2023-04-24T14:32:11;2.30;;;1.50;;
12433;SDS011;6281;49.038;8.372;2023-04-24T14:34:40;2.47;;;2.00;;
12433;SDS011;6281;49.038;8.372;2023-04-24T14:37:09;1.53;;;1.40;;
12433;SDS011;6281;49.038;8.372;2023-04-24T14:39:36;2.87;;;1.40;;
12433;SDS011;6281;49.038;8.372;2023-04-24T14:42:03;2.03;;;1.50;;
12433;SDS011;6281;49.038;8.372;2023-04-24T14:44:30;1.77;;;1.60;;
12433;SDS011;6281;49.038;8.372;2023-04-24T14:46:57;2.20;;;1.23;;
12433;SDS011;6281;49.038;8.372;2023-04-24T14:49:25;1.67;;;1.30;;
12433;SDS011;6281;49.038;8.372;2023-04-24T14:51:53;1.70;;;1.47;;
12433;SDS011;6281;49.038;8.372;2023-04-24T14:54:20;1.47;;;1.33;;
12433;SDS011;6281;49.038;8.372;2023-04-24T14:56:48;2.90;;;1.70;;
12433;SDS011;6281;49.038;8.372;2023-04-24T14:59:15;1.40;;;1.27;;
12433;SDS011;6281;49.038;8.372;2023-04-24T15:01:42;1.80;;;1.30;;
12433;SDS011;6281;49.038;8.372;2023-04-24T15:04:11;2.40;;;1.50;;
12433;SDS011;6281;49.038;8.372;2023-04-24T15:06:38;3.20;;;1.60;;
12433;SDS011;6281;49.038;8.372;2023-04-24T15:09:06;1.93;;;1.10;;
12433;SDS011;6281;49.038;8.372;2023-04-24T15:11:33;1.80;;;1.40;;